createdAt,value
2019-06-10T00:02:43.851Z,101291.55
2019-06-10T00:06:26.526Z,101285.88
2019-06-10T00:10:04.003Z,101284.28
2019-06-10T00:13:46.837Z,101278.61
2019-06-10T00:17:22.915Z,101272.70
2019-06-10T00:21:06.720Z,101270.30
2019-06-10T00:25:05.178Z,101259.36
2019-06-10T00:28:47.299Z,101249.78
2019-06-10T00:32:22.952Z,101242.94
2019-06-10T00:36:07.187Z,101245.48
2019-06-10T00:39:51.228Z,101244.39
2019-06-10T00:43:33.916Z,101234.21
2019-06-10T00:47:14.684Z,101234.98
2019-06-10T00:50:53.994Z,101236.59
2019-06-10T00:54:31.219Z,101234.66
2019-06-10T00:58:07.738Z,101236.31
2019-06-10T01:01:43.073Z,101226.62
2019-06-10T01:05:25.597Z,101227.38
2019-06-10T01:09:01.005Z,101215.00
2019-06-10T01:12:45.857Z,101208.51
2019-06-10T01:16:21.887Z,101199.11
2019-06-10T01:20:05.734Z,101206.78
2019-06-10T01:23:47.760Z,101204.16
2019-06-10T01:27:31.513Z,101196.13
2019-06-10T01:31:28.192Z,101195.52
2019-06-10T01:35:11.532Z,101193.48
2019-06-10T01:39:09.500Z,101191.00
2019-06-10T01:42:52.840Z,101182.17
2019-06-10T01:46:28.217Z,101184.26
2019-06-10T01:50:04.287Z,101182.14
2019-06-10T01:53:47.545Z,101181.64
2019-06-10T01:57:23.470Z,101178.16
2019-06-10T02:01:25.562Z,101169.02
2019-06-10T02:05:01.525Z,101153.59
2019-06-10T02:08:38.006Z,101152.30
2019-06-10T02:12:24.007Z,101137.09
2019-06-10T02:16:04.406Z,101135.08
2019-06-10T02:19:46.943Z,101124.91
2019-06-10T02:23:23.282Z,101122.70
2019-06-10T02:27:05.909Z,101118.55
2019-06-10T02:30:50.560Z,101111.17
2019-06-10T02:34:27.513Z,101106.89
2019-06-10T02:38:33.153Z,101112.13
2019-06-10T02:42:30.659Z,101103.41
2019-06-10T02:46:31.023Z,101106.34
2019-06-10T02:50:10.241Z,101088.28
2019-06-10T02:54:07.258Z,101087.02
2019-06-10T02:57:44.913Z,101085.91
2019-06-10T03:01:23.284Z,101087.41
2019-06-10T03:04:57.936Z,101079.41
2019-06-10T03:08:36.101Z,101080.70
2019-06-10T03:12:17.768Z,101085.65
2019-06-10T03:20:12.375Z,101091.24
2019-06-10T03:23:53.378Z,101081.48
2019-06-10T03:27:35.935Z,101093.36
2019-06-10T03:31:15.178Z,101088.27
2019-06-10T03:34:55.903Z,101082.13
2019-06-10T03:38:32.445Z,101083.57
2019-06-10T03:42:16.695Z,101086.75
2019-06-10T03:46:13.560Z,101086.44
2019-06-10T03:49:56.746Z,101090.84
2019-06-10T03:53:33.750Z,101086.54
2019-06-10T03:57:09.438Z,101083.12
2019-06-10T04:00:44.769Z,101087.11
2019-06-10T04:04:28.361Z,101076.57
2019-06-10T04:08:12.595Z,101077.91
2019-06-10T04:11:55.149Z,101076.33
2019-06-10T04:15:32.593Z,101076.55
2019-06-10T04:19:15.611Z,101069.27
2019-06-10T04:22:52.301Z,101063.75
2019-06-10T04:26:34.896Z,101068.63
2019-06-10T04:30:12.426Z,101073.25
2019-06-10T04:33:54.748Z,101079.73
2019-06-10T04:37:32.325Z,101084.25
2019-06-10T04:41:14.680Z,101071.78
2019-06-10T04:44:52.438Z,101075.44
2019-06-10T04:48:36.005Z,101072.06
2019-06-10T04:52:12.257Z,101067.08
2019-06-10T04:55:48.299Z,101061.34
2019-06-10T04:59:26.070Z,101058.09
2019-06-10T05:03:28.046Z,101058.70
2019-06-10T05:07:12.650Z,101056.28
2019-06-10T05:11:14.904Z,101065.72
2019-06-10T05:14:52.768Z,101060.41
2019-06-10T05:18:36.281Z,101057.33
2019-06-10T05:22:12.447Z,101060.82
2019-06-10T05:25:56.282Z,101049.89
2019-06-10T05:29:52.913Z,101053.20
2019-06-10T05:33:35.444Z,101055.38
2019-06-10T05:37:13.141Z,101051.45
2019-06-10T05:40:55.085Z,101045.52
2019-06-10T05:52:33.789Z,101043.84
2019-06-10T06:00:23.355Z,101041.00
2019-06-10T06:04:08.993Z,101048.52
2019-06-10T06:07:44.547Z,101047.35
2019-06-10T06:11:36.117Z,101043.60
2019-06-10T06:14:59.223Z,101047.14
2019-06-10T06:18:36.415Z,101031.81
2019-06-10T06:22:13.006Z,101025.30
2019-06-10T06:25:55.638Z,101031.69
2019-06-10T06:29:33.460Z,101032.58
2019-06-10T06:33:15.727Z,101027.89
2019-06-10T06:36:52.865Z,101032.12
2019-06-10T06:40:37.244Z,101030.91
2019-06-10T06:44:35.884Z,101036.52
2019-06-10T06:48:39.101Z,101047.92
2019-06-10T06:53:07.745Z,101042.63
2019-06-10T06:56:18.627Z,101035.52
2019-06-10T06:59:54.817Z,101031.36
2019-06-10T07:03:38.591Z,101027.31
2019-06-10T07:07:36.001Z,101033.02
2019-06-10T07:11:22.004Z,101036.19
2019-06-10T07:15:27.064Z,101043.49
2019-06-10T07:19:10.081Z,101033.09
2019-06-10T07:22:46.675Z,101036.57
2019-06-10T07:26:29.544Z,101029.20
2019-06-10T07:30:11.727Z,101025.53
2019-06-10T07:33:52.356Z,101012.34
2019-06-10T07:37:48.161Z,101010.77
2019-06-10T07:41:32.789Z,101013.86
2019-06-10T07:45:27.840Z,101011.38
2019-06-10T07:49:13.242Z,101006.57
2019-06-10T07:53:08.453Z,100998.69
2019-06-10T07:56:49.819Z,100996.07
2019-06-10T08:00:22.724Z,100996.46
2019-06-10T08:03:58.412Z,101000.64
2019-06-10T08:07:43.689Z,101008.02
2019-06-10T08:11:25.438Z,100988.95
2019-06-10T08:15:08.059Z,100990.86
2019-06-10T08:19:09.736Z,100983.98
2019-06-10T08:22:33.497Z,100984.37
2019-06-10T08:26:25.677Z,100982.81
2019-06-10T08:34:32.969Z,100979.16
2019-06-10T08:38:08.547Z,100980.02
2019-06-10T08:41:47.291Z,100981.55
2019-06-10T08:45:28.334Z,100964.48
2019-06-10T08:49:04.381Z,100970.24
2019-06-10T08:53:03.369Z,100964.90
2019-06-10T08:56:47.613Z,100962.20
2019-06-10T09:00:45.118Z,100954.09
2019-06-10T09:04:25.581Z,100950.28
2019-06-10T09:08:02.801Z,100951.47
2019-06-10T09:11:49.487Z,100954.41
2019-06-10T09:15:29.207Z,100955.55
2019-06-10T09:19:13.100Z,100946.78
2019-06-10T09:23:21.607Z,100940.40
2019-06-10T09:26:54.893Z,100929.47
2019-06-10T09:30:57.940Z,100925.95
2019-06-10T09:34:35.869Z,100925.75
2019-06-10T09:38:14.083Z,100934.14
2019-06-10T09:42:02.255Z,100936.50
2019-06-10T09:45:56.214Z,100931.14
2019-06-10T09:49:37.792Z,100931.59
2019-06-10T09:53:26.679Z,100929.23
2019-06-10T09:56:57.913Z,100930.14
2019-06-10T10:05:05.567Z,100930.31
2019-06-10T10:08:45.000Z,100921.87
2019-06-10T10:12:25.692Z,100917.61
2019-06-10T10:16:02.566Z,100909.33
2019-06-10T10:19:48.674Z,100889.20
2019-06-10T10:23:58.328Z,100894.53
2019-06-10T10:27:28.086Z,100907.36
2019-06-10T10:31:25.526Z,100904.33
2019-06-10T10:35:08.459Z,100893.60
2019-06-10T10:38:44.760Z,100876.09
2019-06-10T10:42:41.626Z,100877.77
2019-06-10T10:46:25.261Z,100876.45
2019-06-10T10:50:07.997Z,100878.98
2019-06-10T10:53:46.547Z,100872.05
2019-06-10T10:57:27.657Z,100879.14
2019-06-10T11:01:04.622Z,100887.30
2019-06-10T11:04:48.002Z,100890.45
2019-06-10T11:08:46.718Z,100880.67
2019-06-10T11:12:29.999Z,100870.92
2019-06-10T11:16:05.886Z,100869.96
2019-06-10T11:19:49.304Z,100866.12
2019-06-10T11:23:36.119Z,100854.06
2019-06-10T11:27:18.679Z,100858.16
2019-06-10T11:30:56.744Z,100853.89
2019-06-10T11:34:38.886Z,100836.87
2019-06-10T11:38:14.981Z,100842.02
2019-06-10T11:41:52.849Z,100836.16
2019-06-10T11:45:29.143Z,100831.93
2019-06-10T11:49:04.976Z,100822.20
2019-06-10T11:52:47.627Z,100812.80
2019-06-10T11:56:23.404Z,100802.13
2019-06-10T12:00:13.903Z,100796.13
2019-06-10T12:04:04.286Z,100789.45
2019-06-10T12:07:46.915Z,100794.93
2019-06-10T12:11:23.140Z,100795.02
2019-06-10T12:15:06.129Z,100799.41
2019-06-10T12:18:42.660Z,100796.42
2019-06-10T12:22:25.425Z,100798.67
2019-06-10T12:26:03.456Z,100788.07
2019-06-10T12:29:45.499Z,100784.61
2019-06-10T12:33:24.843Z,100779.30
2019-06-10T12:41:15.151Z,100761.19
2019-06-10T12:44:53.824Z,100761.34
2019-06-10T12:48:35.264Z,100758.76
2019-06-10T12:52:12.550Z,100751.55
2019-06-10T12:55:55.901Z,100746.63
2019-06-10T12:59:52.395Z,100741.13
2019-06-10T13:03:35.008Z,100742.42
2019-06-10T13:07:12.572Z,100738.41
2019-06-10T13:10:55.808Z,100738.54
2019-06-10T13:14:53.132Z,100735.27
2019-06-10T13:18:36.517Z,100731.77
2019-06-10T13:22:33.170Z,100735.02
2019-06-10T13:26:17.714Z,100732.63
2019-06-10T13:30:13.492Z,100721.14
2019-06-10T13:33:56.613Z,100718.53
2019-06-10T13:37:53.448Z,100708.00
2019-06-10T13:41:36.245Z,100695.82
2019-06-10T13:45:12.557Z,100694.92
2019-06-10T13:48:55.187Z,100709.53
2019-06-10T13:52:32.161Z,100702.92
2019-06-10T13:56:38.004Z,100696.86
2019-06-10T14:00:14.669Z,100693.37
2019-06-10T14:03:58.578Z,100694.41
2019-06-10T14:07:55.400Z,100680.34
2019-06-10T14:11:37.968Z,100664.96
2019-06-10T14:15:17.021Z,100659.71
2019-06-10T14:18:58.356Z,100659.12
2019-06-10T14:22:34.436Z,100648.36
2019-06-10T14:26:18.517Z,100652.03
2019-06-10T14:30:15.505Z,100654.40
2019-06-10T14:33:59.179Z,100654.84
2019-06-10T14:37:39.108Z,100654.29
2019-06-10T14:45:16.595Z,100654.33
2019-06-10T14:48:58.700Z,100668.63
2019-06-10T14:52:34.400Z,100658.23
2019-06-10T14:56:19.591Z,100671.05
2019-06-10T15:00:16.676Z,100669.87
2019-06-10T15:03:59.206Z,100661.16
2019-06-10T15:07:34.882Z,100665.19
2019-06-10T15:11:18.431Z,100657.49
2019-06-10T15:18:45.991Z,100651.75
2019-06-10T15:22:28.643Z,100653.72
2019-06-10T15:26:04.718Z,100644.06
2019-06-10T15:29:47.248Z,100639.94
2019-06-10T15:33:25.014Z,100635.95
2019-06-10T15:37:02.850Z,100632.30
2019-06-10T15:40:38.422Z,100628.06
2019-06-10T15:44:18.188Z,100623.99
2019-06-10T15:47:58.520Z,100625.37
2019-06-10T15:51:34.152Z,100608.94
2019-06-10T15:55:38.747Z,100592.92
2019-06-10T15:59:04.569Z,100587.16
2019-06-10T16:02:47.141Z,100590.49
2019-06-10T16:06:23.177Z,100592.73
2019-06-10T16:10:06.931Z,100594.73
2019-06-10T16:13:43.110Z,100599.98
2019-06-10T16:17:26.166Z,100588.14
2019-06-10T16:21:04.353Z,100587.86
2019-06-10T16:24:46.731Z,100603.02
2019-06-10T16:28:24.549Z,100603.02
2019-06-10T16:32:06.712Z,100613.52
2019-06-10T16:35:42.170Z,100623.75
2019-06-10T16:39:26.807Z,100627.28
2019-06-10T16:43:09.037Z,100626.99
2019-06-10T16:46:52.655Z,100619.02
2019-06-10T16:50:49.505Z,100627.34
2019-06-10T16:54:33.041Z,100634.80
2019-06-10T16:58:30.339Z,100635.06
2019-06-10T17:02:12.999Z,100636.14
2019-06-10T17:05:48.343Z,100642.30
2019-06-10T17:09:26.149Z,100652.88
2019-06-10T17:13:03.941Z,100649.55
2019-06-10T17:16:47.585Z,100658.84
2019-06-10T17:20:25.150Z,100669.84
2019-06-10T17:24:03.482Z,100667.95
2019-06-10T17:27:46.026Z,100639.63
2019-06-10T17:31:25.727Z,100640.87
2019-06-10T17:35:06.936Z,100656.88
2019-06-10T17:38:44.248Z,100657.34
2019-06-10T17:42:30.889Z,100653.05
2019-06-10T17:46:12.450Z,100660.17
2019-06-10T17:49:55.030Z,100653.98
2019-06-10T17:53:32.977Z,100642.34
2019-06-10T17:57:14.940Z,100636.81
2019-06-10T18:00:52.816Z,100633.45
2019-06-10T18:04:34.935Z,100623.50
2019-06-10T18:08:10.122Z,100622.95
2019-06-10T18:11:46.196Z,100615.68
2019-06-10T18:15:24.018Z,100636.02
2019-06-10T18:19:09.497Z,100630.45
2019-06-10T18:22:46.353Z,100616.06
2019-06-10T18:26:23.168Z,100611.11
2019-06-10T18:34:29.898Z,100630.94
2019-06-10T18:38:12.775Z,100630.90
2019-06-10T18:41:55.858Z,100644.70
2019-06-10T18:45:39.184Z,100644.73
2019-06-10T18:49:37.433Z,100643.58
2019-06-10T18:53:20.103Z,100640.68
2019-06-10T18:57:02.938Z,100647.98
2019-06-10T19:01:34.375Z,100639.57
2019-06-10T19:09:06.302Z,100633.78
2019-06-10T19:12:42.608Z,100642.16
2019-06-10T19:16:25.195Z,100659.48
2019-06-10T19:20:03.745Z,100673.38
2019-06-10T19:23:45.723Z,100682.79
2019-06-10T19:27:23.702Z,100672.69
2019-06-10T19:31:06.084Z,100696.14
2019-06-10T19:34:48.030Z,100720.27
2019-06-10T19:38:27.166Z,100715.50
2019-06-10T19:42:02.922Z,100725.94
2019-06-10T19:47:07.063Z,100722.71
2019-06-10T19:51:54.258Z,100736.56
2019-06-10T19:55:25.265Z,100753.53
2019-06-10T19:58:48.403Z,100753.86
2019-06-10T20:02:13.147Z,100759.89
2019-06-10T20:05:36.414Z,100756.43
2019-06-10T20:08:59.946Z,100769.27
2019-06-10T20:12:23.123Z,100774.61
2019-06-10T20:16:33.636Z,100778.52
2019-06-10T20:20:16.655Z,100768.94
2019-06-10T20:24:15.941Z,100754.56
2019-06-10T20:28:33.245Z,100743.94
2019-06-10T20:32:08.511Z,100757.52
2019-06-10T20:35:51.020Z,100760.00
2019-06-10T20:39:29.224Z,100758.15
2019-06-10T20:43:03.693Z,100761.23
2019-06-10T20:46:47.736Z,100747.69
2019-06-10T20:50:33.852Z,100741.69
2019-06-10T20:54:16.674Z,100745.77
2019-06-10T20:58:02.951Z,100734.20
2019-06-10T21:01:38.828Z,100731.48
2019-06-10T21:05:14.433Z,100744.80
2019-06-10T21:08:51.216Z,100745.08
2019-06-10T21:12:34.519Z,100750.97
2019-06-10T21:16:12.646Z,100754.05
2019-06-10T21:19:49.181Z,100761.72
2019-06-10T21:23:32.741Z,100762.91
2019-06-10T21:27:08.177Z,100749.23
2019-06-10T21:30:49.594Z,100746.56
2019-06-10T21:34:22.476Z,100747.12
2019-06-10T21:38:05.100Z,100739.31
2019-06-10T21:41:42.578Z,100736.95
2019-06-10T21:45:22.734Z,100737.47
2019-06-10T21:49:07.105Z,100744.02
2019-06-10T21:52:45.774Z,100746.73
2019-06-10T21:56:22.486Z,100735.87
2019-06-10T22:04:07.245Z,100733.45
2019-06-10T22:07:43.830Z,100740.73
2019-06-10T22:11:19.555Z,100751.41
2019-06-10T22:15:02.157Z,100741.87
2019-06-10T22:18:38.356Z,100738.25
2019-06-10T22:22:36.247Z,100742.23
2019-06-10T22:26:19.119Z,100747.14
2019-06-10T22:29:57.015Z,100749.22
2019-06-10T22:33:43.155Z,100752.35
2019-06-10T22:37:29.723Z,100756.21
2019-06-10T22:41:12.400Z,100759.30
2019-06-10T22:44:47.737Z,100746.70
2019-06-10T22:48:33.273Z,100749.00
2019-06-10T22:52:28.134Z,100745.85
2019-06-10T22:56:13.108Z,100753.28
2019-06-10T22:59:48.821Z,100760.80
2019-06-10T23:03:31.369Z,100768.09
2019-06-10T23:07:06.661Z,100770.35
2019-06-10T23:10:50.593Z,100775.11
2019-06-10T23:14:36.517Z,100781.60
2019-06-10T23:18:19.050Z,100785.11
2019-06-10T23:21:55.710Z,100788.79
2019-06-10T23:25:38.698Z,100786.25
2019-06-10T23:29:14.210Z,100790.38
2019-06-10T23:32:58.141Z,100781.05
2019-06-10T23:36:43.167Z,100782.18
2019-06-10T23:40:36.194Z,100786.28
2019-06-10T23:44:12.340Z,100788.88
2019-06-10T23:47:56.538Z,100787.58
2019-06-10T23:51:38.262Z,100786.89
2019-06-10T23:55:22.714Z,100791.72
2019-06-10T23:59:18.479Z,100788.19
